createdAt,value
2018-08-11T00:02:01.282Z,27.10
2018-08-11T00:04:27.747Z,27.10
2018-08-11T00:06:54.216Z,27.00
2018-08-11T00:09:20.651Z,27.00
2018-08-11T00:11:47.105Z,27.00
2018-08-11T00:14:13.778Z,27.00
2018-08-11T00:16:40.244Z,27.00
2018-08-11T00:19:07.482Z,27.00
2018-08-11T00:21:33.937Z,27.00
2018-08-11T00:24:00.399Z,27.00
2018-08-11T00:26:26.983Z,27.00
2018-08-11T00:28:54.361Z,27.00
2018-08-11T00:31:20.823Z,27.00
2018-08-11T00:33:47.287Z,27.00
2018-08-11T00:36:13.759Z,27.00
2018-08-11T00:38:40.435Z,27.00
2018-08-11T00:41:06.921Z,27.00
2018-08-11T00:43:33.395Z,27.00
2018-08-11T00:46:00.497Z,27.00
2018-08-11T00:48:26.945Z,27.00
2018-08-11T00:50:53.391Z,27.10
2018-08-11T00:53:19.943Z,27.00
2018-08-11T00:55:46.520Z,27.00
2018-08-11T00:58:12.975Z,27.00
2018-08-11T01:00:39.450Z,27.00
2018-08-11T01:03:06.451Z,27.00
2018-08-11T01:05:32.925Z,27.00
2018-08-11T01:07:59.367Z,27.00
2018-08-11T01:10:25.890Z,27.00
2018-08-11T01:12:52.373Z,27.00
2018-08-11T01:15:21.103Z,27.00
2018-08-11T01:17:48.376Z,27.00
2018-08-11T01:20:15.155Z,27.00
2018-08-11T01:22:43.041Z,27.00
2018-08-11T01:25:09.954Z,27.00
2018-08-11T01:27:36.903Z,27.00
2018-08-11T01:30:03.959Z,27.00
2018-08-11T01:32:30.499Z,27.00
2018-08-11T01:34:56.959Z,27.00
2018-08-11T01:37:23.556Z,27.00
2018-08-11T01:39:50.015Z,27.00
2018-08-11T01:42:16.482Z,27.00
2018-08-11T01:44:42.979Z,27.00
2018-08-11T01:47:09.445Z,27.00
2018-08-11T01:49:36.015Z,27.00
2018-08-11T01:52:02.753Z,27.00
2018-08-11T01:54:29.197Z,27.00
2018-08-11T01:56:55.653Z,27.00
2018-08-11T01:59:22.087Z,27.00
2018-08-11T02:01:48.539Z,27.00
2018-08-11T02:04:14.974Z,27.00
2018-08-11T02:06:42.072Z,27.00
2018-08-11T02:09:10.804Z,27.00
2018-08-11T02:11:37.285Z,27.00
2018-08-11T02:14:03.887Z,27.00
2018-08-11T02:16:30.336Z,27.00
2018-08-11T02:18:56.783Z,27.00
2018-08-11T02:21:23.230Z,27.00
2018-08-11T02:23:49.689Z,27.00
2018-08-11T02:26:16.646Z,27.00
2018-08-11T02:28:43.503Z,27.00
2018-08-11T02:31:09.958Z,27.00
2018-08-11T02:33:36.424Z,26.90
2018-08-11T02:36:02.861Z,27.00
2018-08-11T02:38:29.289Z,27.00
2018-08-11T02:40:55.748Z,26.90
2018-08-11T02:43:22.201Z,27.00
2018-08-11T02:45:48.654Z,27.00
2018-08-11T02:48:15.128Z,27.00
2018-08-11T02:50:42.153Z,26.90
2018-08-11T02:53:08.604Z,27.00
2018-08-11T02:55:35.078Z,27.00
2018-08-11T02:58:02.197Z,26.90
2018-08-11T03:00:28.674Z,26.90
2018-08-11T03:02:55.134Z,26.90
2018-08-11T03:05:21.611Z,26.90
2018-08-11T03:07:48.068Z,26.90
2018-08-11T03:10:14.525Z,26.90
2018-08-11T03:12:41.337Z,26.90
2018-08-11T03:15:07.976Z,26.90
2018-08-11T03:17:34.428Z,26.90
2018-08-11T03:20:00.896Z,26.90
2018-08-11T03:22:27.390Z,26.90
2018-08-11T03:24:53.879Z,26.90
2018-08-11T03:27:20.334Z,26.90
2018-08-11T03:29:46.840Z,26.90
2018-08-11T03:32:13.317Z,26.90
2018-08-11T03:34:39.762Z,26.90
2018-08-11T03:37:06.261Z,27.00
2018-08-11T03:39:32.753Z,26.90
2018-08-11T03:41:59.227Z,26.90
2018-08-11T03:44:25.693Z,26.90
2018-08-11T03:46:52.153Z,26.90
2018-08-11T03:49:18.647Z,26.90
2018-08-11T03:51:45.233Z,26.90
2018-08-11T03:54:11.709Z,26.90
2018-08-11T03:56:38.157Z,26.90
2018-08-11T03:59:04.963Z,26.90
2018-08-11T04:01:31.421Z,26.90
2018-08-11T04:03:57.891Z,26.90
2018-08-11T04:06:24.407Z,26.90
2018-08-11T04:08:50.925Z,26.90
2018-08-11T04:11:17.370Z,26.90
2018-08-11T04:13:43.865Z,26.90
2018-08-11T04:16:10.338Z,26.90
2018-08-11T04:18:36.813Z,26.90
2018-08-11T04:21:03.285Z,26.90
2018-08-11T04:23:29.769Z,26.90
2018-08-11T04:25:56.243Z,26.90
2018-08-11T04:28:22.713Z,26.90
2018-08-11T04:30:49.199Z,26.90
2018-08-11T04:33:15.643Z,26.90
2018-08-11T04:35:42.196Z,26.90
2018-08-11T04:38:08.649Z,26.90
2018-08-11T04:40:35.239Z,26.90
2018-08-11T04:43:01.728Z,26.90
2018-08-11T04:45:28.207Z,26.90
2018-08-11T04:47:54.699Z,26.90
2018-08-11T04:50:21.185Z,26.90
2018-08-11T04:52:47.640Z,26.90
2018-08-11T04:55:14.085Z,26.90
2018-08-11T04:57:40.531Z,26.90
2018-08-11T05:00:07.467Z,26.90
2018-08-11T05:02:33.997Z,26.90
2018-08-11T05:05:00.467Z,26.90
2018-08-11T05:07:26.965Z,26.90
2018-08-11T05:09:53.448Z,26.90
2018-08-11T05:12:20.004Z,26.90
2018-08-11T05:14:46.455Z,26.90
2018-08-11T05:17:12.945Z,26.90
2018-08-11T05:19:39.409Z,26.90
2018-08-11T05:22:06.499Z,26.90
2018-08-11T05:24:33.013Z,26.90
2018-08-11T05:26:59.497Z,26.90
2018-08-11T05:29:25.953Z,26.90
2018-08-11T05:31:52.424Z,26.90
2018-08-11T05:34:19.023Z,26.90
2018-08-11T05:36:45.498Z,26.90
2018-08-11T05:39:13.433Z,26.90
2018-08-11T05:41:39.953Z,26.90
2018-08-11T05:44:06.403Z,26.90
2018-08-11T05:46:32.893Z,26.90
2018-08-11T05:48:59.371Z,26.90
2018-08-11T05:51:25.824Z,26.90
2018-08-11T05:53:52.413Z,26.90
2018-08-11T05:56:18.907Z,26.90
2018-08-11T05:58:45.960Z,26.90
2018-08-11T06:01:12.430Z,26.90
2018-08-11T06:03:38.915Z,26.90
2018-08-11T06:06:05.478Z,26.90
2018-08-11T06:08:31.933Z,26.90
2018-08-11T06:10:58.414Z,26.90
2018-08-11T06:13:24.907Z,26.90
2018-08-11T06:15:51.348Z,26.90
2018-08-11T06:18:18.288Z,26.90
2018-08-11T06:20:44.763Z,26.90
2018-08-11T06:23:11.212Z,26.90
2018-08-11T06:25:37.672Z,26.90
2018-08-11T06:28:04.166Z,26.90
2018-08-11T06:30:30.643Z,26.90
2018-08-11T06:32:57.120Z,26.90
2018-08-11T06:35:23.593Z,26.90
2018-08-11T06:37:50.064Z,26.90
2018-08-11T06:40:16.620Z,26.80
2018-08-11T06:42:43.072Z,26.90
2018-08-11T06:45:09.576Z,26.90
2018-08-11T06:47:36.050Z,26.80
2018-08-11T06:50:02.534Z,26.90
2018-08-11T06:52:29.032Z,26.90
2018-08-11T06:54:55.522Z,26.90
2018-08-11T06:57:22.032Z,26.90
2018-08-11T06:59:48.507Z,26.80
2018-08-11T07:02:14.983Z,26.80
2018-08-11T07:04:41.512Z,26.80
2018-08-11T07:07:08.012Z,26.80
2018-08-11T07:09:34.570Z,26.90
2018-08-11T07:12:01.053Z,26.80
2018-08-11T07:14:27.524Z,26.80
2018-08-11T07:16:53.980Z,26.80
2018-08-11T07:19:20.459Z,26.90
2018-08-11T07:21:47.248Z,26.80
2018-08-11T07:24:13.788Z,26.90
2018-08-11T07:26:40.304Z,26.90
2018-08-11T07:29:06.910Z,26.90
2018-08-11T07:31:33.406Z,26.90
2018-08-11T07:33:59.869Z,26.90
2018-08-11T07:36:26.527Z,26.90
2018-08-11T07:38:53.634Z,26.90
2018-08-11T07:41:20.138Z,26.80
2018-08-11T07:43:46.611Z,26.90
2018-08-11T07:46:13.082Z,26.80
2018-08-11T07:48:39.519Z,26.90
2018-08-11T07:51:05.998Z,26.90
2018-08-11T07:53:32.446Z,26.90
2018-08-11T07:55:58.958Z,26.90
2018-08-11T07:58:25.416Z,26.90
2018-08-11T08:00:51.884Z,26.90
2018-08-11T08:03:18.347Z,26.90
2018-08-11T08:05:44.807Z,26.90
2018-08-11T08:08:11.274Z,26.90
2018-08-11T08:10:37.777Z,26.90
2018-08-11T08:13:04.304Z,26.90
2018-08-11T08:15:30.762Z,26.90
2018-08-11T08:17:57.245Z,26.90
2018-08-11T08:20:23.724Z,26.90
2018-08-11T08:22:50.176Z,26.90
2018-08-11T08:25:16.645Z,26.80
2018-08-11T08:27:43.120Z,26.90
2018-08-11T08:30:11.082Z,26.80
2018-08-11T08:32:37.583Z,26.80
2018-08-11T08:35:04.084Z,26.80
2018-08-11T08:37:30.560Z,26.80
2018-08-11T08:39:57.026Z,26.80
2018-08-11T08:42:23.485Z,26.90
2018-08-11T08:44:49.982Z,26.80
2018-08-11T08:47:16.955Z,26.90
2018-08-11T08:49:43.439Z,26.80
2018-08-11T08:52:09.898Z,26.80
2018-08-11T08:54:36.920Z,26.80
2018-08-11T08:57:03.410Z,26.90
2018-08-11T08:59:29.914Z,26.80
2018-08-11T09:01:56.374Z,26.90
2018-08-11T09:04:22.844Z,26.90
2018-08-11T09:06:49.330Z,26.90
2018-08-11T09:09:15.818Z,26.90
2018-08-11T09:11:42.655Z,26.90
2018-08-11T09:14:09.500Z,26.90
2018-08-11T09:16:35.951Z,26.90
2018-08-11T09:19:02.441Z,26.90
2018-08-11T09:21:28.945Z,26.90
2018-08-11T09:23:55.962Z,26.90
2018-08-11T09:26:22.535Z,26.90
2018-08-11T09:28:50.153Z,26.90
2018-08-11T09:31:16.640Z,26.90
2018-08-11T09:33:43.112Z,26.90
2018-08-11T09:36:09.599Z,26.90
2018-08-11T09:38:36.056Z,26.90
2018-08-11T09:41:02.541Z,26.90
2018-08-11T09:43:29.090Z,26.90
2018-08-11T09:45:55.576Z,26.90
2018-08-11T09:48:22.075Z,26.90
2018-08-11T09:50:48.548Z,26.90
2018-08-11T09:53:15.555Z,26.90
2018-08-11T09:55:42.057Z,26.90
2018-08-11T09:58:08.522Z,26.90
2018-08-11T10:00:40.641Z,26.90
2018-08-11T10:03:07.173Z,26.90
2018-08-11T10:05:33.647Z,26.90
2018-08-11T10:08:00.113Z,26.90
2018-08-11T10:10:26.580Z,26.90
2018-08-11T10:12:53.089Z,26.90
2018-08-11T10:15:19.604Z,26.90
2018-08-11T10:17:46.071Z,26.90
2018-08-11T10:20:12.525Z,26.90
2018-08-11T10:22:38.996Z,26.90
2018-08-11T10:25:05.472Z,26.90
2018-08-11T10:27:31.928Z,26.90
2018-08-11T10:29:58.361Z,26.90
2018-08-11T10:32:24.795Z,26.90
2018-08-11T10:34:51.816Z,26.90
2018-08-11T10:37:18.315Z,26.90
2018-08-11T10:39:44.803Z,26.90
2018-08-11T10:42:11.310Z,26.90
2018-08-11T10:44:37.806Z,26.90
2018-08-11T10:47:04.282Z,26.90
2018-08-11T10:49:30.739Z,26.90
2018-08-11T10:51:57.205Z,26.90
2018-08-11T10:54:23.683Z,26.90
2018-08-11T10:56:50.133Z,26.90
2018-08-11T10:59:16.651Z,26.90
2018-08-11T11:01:43.149Z,26.90
2018-08-11T11:04:09.627Z,26.90
2018-08-11T11:06:36.099Z,26.90
2018-08-11T11:09:03.183Z,26.90
2018-08-11T11:11:29.772Z,25.40
2018-08-11T11:13:56.232Z,26.90
2018-08-11T11:16:22.719Z,26.90
2018-08-11T11:18:49.388Z,26.90
2018-08-11T11:21:16.009Z,26.90
2018-08-11T11:23:42.468Z,26.90
2018-08-11T11:26:08.923Z,26.90
2018-08-11T11:28:35.391Z,26.90
2018-08-11T11:31:01.851Z,26.90
2018-08-11T11:33:28.436Z,26.90
2018-08-11T11:35:54.891Z,26.90
2018-08-11T11:38:21.357Z,26.80
2018-08-11T11:40:47.874Z,26.80
2018-08-11T11:43:14.457Z,26.80
2018-08-11T11:45:41.499Z,26.80
2018-08-11T11:48:07.952Z,26.80
2018-08-11T11:50:34.422Z,26.80
2018-08-11T11:53:00.892Z,26.80
2018-08-11T11:55:27.358Z,26.80
2018-08-11T11:57:53.843Z,26.80
2018-08-11T12:00:20.634Z,26.90
2018-08-11T12:02:47.112Z,26.80
2018-08-11T12:05:13.605Z,26.80
2018-08-11T12:07:40.098Z,26.60
2018-08-11T12:10:06.584Z,26.80
2018-08-11T12:12:33.062Z,26.80
2018-08-11T12:14:59.544Z,26.80
2018-08-11T12:17:25.998Z,26.80
2018-08-11T12:19:52.462Z,26.80
2018-08-11T12:22:18.940Z,26.80
2018-08-11T12:24:45.514Z,26.80
2018-08-11T12:27:12.529Z,26.80
2018-08-11T12:29:38.969Z,26.80
2018-08-11T12:32:05.446Z,26.80
2018-08-11T12:34:31.917Z,26.80
2018-08-11T12:36:58.379Z,26.80
2018-08-11T12:39:24.845Z,26.80
2018-08-11T12:41:51.419Z,26.80
2018-08-11T12:44:17.891Z,26.80
2018-08-11T12:46:45.019Z,26.80
2018-08-11T12:49:12.469Z,26.80
2018-08-11T12:51:38.938Z,26.80
2018-08-11T12:54:05.655Z,26.80
2018-08-11T12:56:32.760Z,26.80
2018-08-11T12:58:59.264Z,26.80
2018-08-11T13:01:25.819Z,26.80
2018-08-11T13:03:52.268Z,26.80
2018-08-11T13:06:18.790Z,26.80
2018-08-11T13:08:45.685Z,26.80
2018-08-11T13:11:12.177Z,26.80
2018-08-11T13:13:38.652Z,26.80
2018-08-11T13:16:05.104Z,26.80
2018-08-11T13:18:31.536Z,26.80
2018-08-11T13:20:58.026Z,26.80
2018-08-11T13:23:24.485Z,26.80
2018-08-11T13:25:50.963Z,26.80
2018-08-11T13:28:17.445Z,26.80
2018-08-11T13:30:43.968Z,26.80
2018-08-11T13:33:10.471Z,26.80
2018-08-11T13:35:36.977Z,26.80
2018-08-11T13:38:03.467Z,26.80
2018-08-11T13:40:30.827Z,26.90
2018-08-11T13:42:57.339Z,26.80
2018-08-11T13:45:23.821Z,26.80
2018-08-11T13:47:50.844Z,26.80
2018-08-11T13:50:18.358Z,26.80
2018-08-11T13:52:44.869Z,26.80
2018-08-11T13:55:11.479Z,26.80
2018-08-11T13:57:37.921Z,26.80
2018-08-11T14:00:04.442Z,26.80
2018-08-11T14:02:31.032Z,26.80
2018-08-11T14:04:57.521Z,26.80
2018-08-11T14:07:24.516Z,26.80
2018-08-11T14:09:51.107Z,26.30
2018-08-11T14:12:18.280Z,26.80
2018-08-11T14:14:44.739Z,26.80
2018-08-11T14:17:11.227Z,26.80
2018-08-11T14:19:37.727Z,26.80
2018-08-11T14:22:04.215Z,26.80
2018-08-11T14:24:30.695Z,26.80
2018-08-11T14:26:57.179Z,26.80
2018-08-11T14:29:23.777Z,26.80
2018-08-11T14:31:50.315Z,26.80
2018-08-11T14:34:16.820Z,26.80
2018-08-11T14:36:43.283Z,26.80
2018-08-11T14:39:09.968Z,26.80
2018-08-11T14:41:36.693Z,26.80
2018-08-11T14:44:03.824Z,26.80
2018-08-11T14:46:30.308Z,26.80
2018-08-11T14:48:56.745Z,26.80
2018-08-11T14:51:23.829Z,26.80
2018-08-11T14:53:50.335Z,26.80
2018-08-11T14:56:16.891Z,26.80
2018-08-11T14:58:43.304Z,26.80
2018-08-11T15:01:10.085Z,26.80
2018-08-11T15:03:36.556Z,26.80
2018-08-11T15:06:03.043Z,26.80
2018-08-11T15:08:29.503Z,26.80
2018-08-11T15:10:55.967Z,26.80
2018-08-11T15:13:22.718Z,26.80
2018-08-11T15:15:49.185Z,26.80
2018-08-11T15:18:15.808Z,26.80
2018-08-11T15:20:42.285Z,26.80
2018-08-11T15:23:08.719Z,26.80
2018-08-11T15:25:35.206Z,26.80
2018-08-11T15:28:01.711Z,26.80
2018-08-11T15:30:28.216Z,26.80
2018-08-11T15:32:54.673Z,26.80
2018-08-11T15:35:21.125Z,26.80
2018-08-11T15:37:47.579Z,26.80
2018-08-11T15:40:14.021Z,26.80
2018-08-11T15:42:40.471Z,26.80
2018-08-11T15:45:06.919Z,26.80
2018-08-11T15:47:33.380Z,26.80
2018-08-11T15:50:05.975Z,26.80
2018-08-11T15:52:32.448Z,26.80
2018-08-11T15:54:58.904Z,26.80
2018-08-11T15:57:25.374Z,26.80
2018-08-11T15:59:51.850Z,26.70
2018-08-11T16:02:18.306Z,26.80
2018-08-11T16:04:44.796Z,26.80
2018-08-11T16:07:11.234Z,26.80
2018-08-11T16:09:37.763Z,26.70
2018-08-11T16:12:04.378Z,26.80
2018-08-11T16:14:30.913Z,26.80
2018-08-11T16:16:57.438Z,26.80
2018-08-11T16:19:24.110Z,26.80
2018-08-11T16:21:50.584Z,26.80
2018-08-11T16:24:17.030Z,26.80
2018-08-11T16:26:43.490Z,26.70
2018-08-11T16:29:10.540Z,26.80
2018-08-11T16:31:37.011Z,26.80
2018-08-11T16:34:03.478Z,26.80
2018-08-11T16:36:29.990Z,26.80
2018-08-11T16:38:56.791Z,26.80
2018-08-11T16:41:23.290Z,26.80
2018-08-11T16:43:49.730Z,26.80
2018-08-11T16:46:16.208Z,26.70
2018-08-11T16:48:50.589Z,26.70
2018-08-11T16:51:17.082Z,26.80
2018-08-11T16:53:43.621Z,26.80
2018-08-11T16:56:10.044Z,26.80
2018-08-11T16:58:36.651Z,26.70
2018-08-11T17:01:03.142Z,26.70
2018-08-11T17:03:29.590Z,26.70
2018-08-11T17:05:56.075Z,26.70
2018-08-11T17:08:22.610Z,26.80
2018-08-11T17:10:49.073Z,26.80
2018-08-11T17:13:15.524Z,26.70
2018-08-11T17:15:41.996Z,26.70
2018-08-11T17:18:08.475Z,26.70
2018-08-11T17:20:34.973Z,26.70
2018-08-11T17:23:01.407Z,26.70
2018-08-11T17:25:28.548Z,26.70
2018-08-11T17:27:55.041Z,26.70
2018-08-11T17:30:21.561Z,26.70
2018-08-11T17:32:48.063Z,26.70
2018-08-11T17:35:14.554Z,26.70
2018-08-11T17:37:41.017Z,26.70
2018-08-11T17:40:08.273Z,26.70
2018-08-11T17:42:34.723Z,26.70
2018-08-11T17:45:01.166Z,26.70
2018-08-11T17:47:27.643Z,26.70
2018-08-11T17:49:54.101Z,26.70
2018-08-11T17:52:20.632Z,26.70
2018-08-11T17:54:47.093Z,26.70
2018-08-11T17:57:13.609Z,26.70
2018-08-11T17:59:40.085Z,26.70
2018-08-11T18:02:06.563Z,26.70
2018-08-11T18:04:33.048Z,26.70
2018-08-11T18:06:59.567Z,26.70
2018-08-11T18:09:26.155Z,26.70
2018-08-11T18:11:52.630Z,26.70
2018-08-11T18:14:19.241Z,26.70
2018-08-11T18:16:45.697Z,26.70
2018-08-11T18:19:12.284Z,26.70
2018-08-11T18:21:38.789Z,26.70
2018-08-11T18:24:05.839Z,26.70
2018-08-11T18:26:33.013Z,26.70
2018-08-11T18:28:59.487Z,26.70
2018-08-11T18:31:26.258Z,26.70
2018-08-11T18:33:52.735Z,26.70
2018-08-11T18:36:19.310Z,26.70
2018-08-11T18:38:46.757Z,26.70
2018-08-11T18:41:13.477Z,26.70
2018-08-11T18:43:40.007Z,26.70
2018-08-11T18:46:06.534Z,26.70
2018-08-11T18:48:33.020Z,26.70
2018-08-11T18:50:59.492Z,26.70
2018-08-11T18:53:25.970Z,26.70
2018-08-11T18:55:52.478Z,26.70
2018-08-11T18:58:18.958Z,26.70
2018-08-11T19:00:45.458Z,26.70
2018-08-11T19:03:11.938Z,26.70
2018-08-11T19:05:38.400Z,26.70
2018-08-11T19:08:04.891Z,26.70
2018-08-11T19:10:31.382Z,26.70
2018-08-11T19:12:57.908Z,26.70
2018-08-11T19:15:24.344Z,26.70
2018-08-11T19:17:50.872Z,26.70
2018-08-11T19:20:17.324Z,26.70
2018-08-11T19:22:43.808Z,26.70
2018-08-11T19:25:11.170Z,26.70
2018-08-11T19:27:37.698Z,26.70
2018-08-11T19:30:04.166Z,26.70
2018-08-11T19:32:31.058Z,26.70
2018-08-11T19:34:57.682Z,26.70
2018-08-11T19:37:24.371Z,26.70
2018-08-11T19:39:50.850Z,26.70
2018-08-11T19:42:17.466Z,26.70
2018-08-11T19:44:43.945Z,26.70
2018-08-11T19:47:10.543Z,26.70
2018-08-11T19:49:37.048Z,26.70
2018-08-11T19:52:03.558Z,26.60
2018-08-11T19:54:30.038Z,26.70
2018-08-11T19:56:56.498Z,26.70
2018-08-11T19:59:23.018Z,26.70
2018-08-11T20:01:49.520Z,26.70
2018-08-11T20:04:16.004Z,26.70
2018-08-11T20:06:43.048Z,26.70
2018-08-11T20:09:10.174Z,26.70
2018-08-11T20:11:36.659Z,26.70
2018-08-11T20:14:03.149Z,26.70
2018-08-11T20:16:29.647Z,26.70
2018-08-11T20:18:56.817Z,26.70
2018-08-11T20:21:23.228Z,26.70
2018-08-11T20:23:49.718Z,26.70
2018-08-11T20:26:16.282Z,26.70
2018-08-11T20:28:42.794Z,26.70
2018-08-11T20:31:09.265Z,25.70
2018-08-11T20:33:35.821Z,26.60
2018-08-11T20:36:02.417Z,26.70
2018-08-11T20:38:28.872Z,26.70
2018-08-11T20:40:55.384Z,26.60
2018-08-11T20:43:21.805Z,26.70
2018-08-11T20:45:48.277Z,26.60
2018-08-11T20:48:14.765Z,26.60
2018-08-11T20:50:41.311Z,26.60
2018-08-11T20:53:07.908Z,26.60
2018-08-11T20:55:34.399Z,26.60
2018-08-11T20:58:01.134Z,26.60
2018-08-11T21:00:27.714Z,26.60
2018-08-11T21:02:54.196Z,26.60
2018-08-11T21:05:20.667Z,26.60
2018-08-11T21:07:47.199Z,26.60
2018-08-11T21:10:14.451Z,26.60
2018-08-11T21:12:41.637Z,26.60
2018-08-11T21:15:08.828Z,26.60
2018-08-11T21:17:35.785Z,26.60
2018-08-11T21:20:02.300Z,26.60
2018-08-11T21:22:28.825Z,26.60
2018-08-11T21:24:55.383Z,26.60
2018-08-11T21:27:22.026Z,26.60
2018-08-11T21:29:48.531Z,26.60
2018-08-11T21:32:15.213Z,26.60
2018-08-11T21:34:41.735Z,26.60
2018-08-11T21:37:08.233Z,26.60
2018-08-11T21:39:34.739Z,26.60
2018-08-11T21:42:01.254Z,26.60
2018-08-11T21:44:27.754Z,26.60
2018-08-11T21:46:54.247Z,26.60
2018-08-11T21:49:20.753Z,26.60
2018-08-11T21:51:47.198Z,26.60
2018-08-11T21:54:13.713Z,26.60
2018-08-11T21:56:40.273Z,26.60
2018-08-11T21:59:13.074Z,26.60
2018-08-11T22:01:39.589Z,26.60
2018-08-11T22:04:06.112Z,26.60
2018-08-11T22:06:32.788Z,26.60
2018-08-11T22:08:59.242Z,26.60
2018-08-11T22:11:25.768Z,26.60
2018-08-11T22:13:52.237Z,26.60
2018-08-11T22:16:18.736Z,26.60
2018-08-11T22:18:45.622Z,26.60
2018-08-11T22:21:12.061Z,26.60
2018-08-11T22:23:38.533Z,26.60
2018-08-11T22:26:05.039Z,26.60
2018-08-11T22:28:31.494Z,26.60
2018-08-11T22:30:57.984Z,26.60
2018-08-11T22:33:24.490Z,26.60
2018-08-11T22:35:51.022Z,26.60
2018-08-11T22:38:17.440Z,26.60
2018-08-11T22:40:43.902Z,26.60
2018-08-11T22:43:10.391Z,26.60
2018-08-11T22:45:36.839Z,26.60
2018-08-11T22:48:03.283Z,26.60
2018-08-11T22:50:29.741Z,26.60
2018-08-11T22:52:56.277Z,26.60
2018-08-11T22:55:23.249Z,26.50
2018-08-11T22:57:49.689Z,26.60
2018-08-11T23:00:17.110Z,26.60
2018-08-11T23:02:44.043Z,26.60
2018-08-11T23:05:10.475Z,26.50
2018-08-11T23:07:37.419Z,26.60
2018-08-11T23:10:03.896Z,26.60
2018-08-11T23:12:30.337Z,26.60
2018-08-11T23:14:56.880Z,26.60
2018-08-11T23:17:23.376Z,26.60
2018-08-11T23:19:49.877Z,26.60
2018-08-11T23:22:16.354Z,26.50
2018-08-11T23:24:42.840Z,26.60
2018-08-11T23:27:09.291Z,26.60
2018-08-11T23:29:35.766Z,26.50
2018-08-11T23:32:03.021Z,26.50
2018-08-11T23:34:29.394Z,26.50
2018-08-11T23:36:55.889Z,26.50
2018-08-11T23:39:22.343Z,26.60
2018-08-11T23:41:48.788Z,26.50
2018-08-11T23:44:15.972Z,26.50
2018-08-11T23:46:42.455Z,26.50
2018-08-11T23:49:10.464Z,26.50
2018-08-11T23:51:36.952Z,26.50
2018-08-11T23:54:03.455Z,26.50
2018-08-11T23:56:30.026Z,26.50
2018-08-11T23:58:56.674Z,26.50
